sensor_id;sensor_type;location;lat;lon;timestamp;P1;durP1;ratioP1;P2;durP2;ratioP2
21663;SDS011;10993;52.510;13.456;2023-05-19T00:02:02;5.22;;;1.40;;
21663;SDS011;10993;52.510;13.456;2023-05-19T00:07:06;5.78;;;1.70;;
21663;SDS011;10993;52.510;13.456;2023-05-19T00:12:10;4.38;;;1.63;;
21663;SDS011;10993;52.510;13.456;2023-05-19T00:17:12;3.78;;;1.17;;
21663;SDS011;10993;52.510;13.456;2023-05-19T00:22:14;4.22;;;1.60;;
21663;SDS011;10993;52.510;13.456;2023-05-19T00:27:15;4.45;;;1.33;;
21663;SDS011;10993;52.510;13.456;2023-05-19T00:32:16;5.10;;;1.10;;
21663;SDS011;10993;52.510;13.456;2023-05-19T00:37:18;2.90;;;1.10;;
21663;SDS011;10993;52.510;13.456;2023-05-19T00:42:19;2.63;;;1.20;;
21663;SDS011;10993;52.510;13.456;2023-05-19T00:47:20;3.17;;;1.20;;
21663;SDS011;10993;52.510;13.456;2023-05-19T00:52:22;3.90;;;1.20;;
21663;SDS011;10993;52.510;13.456;2023-05-19T00:57:22;4.20;;;1.33;;
21663;SDS011;10993;52.510;13.456;2023-05-19T01:02:23;5.90;;;1.20;;
21663;SDS011;10993;52.510;13.456;2023-05-19T01:07:24;2.17;;;0.90;;
21663;SDS011;10993;52.510;13.456;2023-05-19T01:12:25;4.47;;;1.20;;
21663;SDS011;10993;52.510;13.456;2023-05-19T01:17:28;3.72;;;1.10;;
21663;SDS011;10993;52.510;13.456;2023-05-19T01:33:37;4.65;;;1.30;;
21663;SDS011;10993;52.510;13.456;2023-05-19T01:38:40;5.32;;;1.33;;
21663;SDS011;10993;52.510;13.456;2023-05-19T01:43:42;4.68;;;1.20;;
21663;SDS011;10993;52.510;13.456;2023-05-19T01:48:44;5.90;;;1.35;;
21663;SDS011;10993;52.510;13.456;2023-05-19T01:53:46;4.05;;;1.15;;
21663;SDS011;10993;52.510;13.456;2023-05-19T01:58:47;3.35;;;0.98;;
21663;SDS011;10993;52.510;13.456;2023-05-19T02:04:03;3.55;;;1.08;;
21663;SDS011;10993;52.510;13.456;2023-05-19T02:09:17;3.33;;;1.17;;
21663;SDS011;10993;52.510;13.456;2023-05-19T02:14:24;5.03;;;1.20;;
21663;SDS011;10993;52.510;13.456;2023-05-19T02:19:31;5.18;;;1.08;;
21663;SDS011;10993;52.510;13.456;2023-05-19T02:24:33;2.28;;;1.00;;
21663;SDS011;10993;52.510;13.456;2023-05-19T02:29:33;6.03;;;1.23;;
21663;SDS011;10993;52.510;13.456;2023-05-19T02:34:35;4.57;;;1.25;;
21663;SDS011;10993;52.510;13.456;2023-05-19T02:39:35;3.72;;;1.20;;
21663;SDS011;10993;52.510;13.456;2023-05-19T02:44:36;4.13;;;1.10;;
21663;SDS011;10993;52.510;13.456;2023-05-19T02:49:37;2.70;;;1.10;;
21663;SDS011;10993;52.510;13.456;2023-05-19T02:54:38;3.38;;;0.90;;
21663;SDS011;10993;52.510;13.456;2023-05-19T02:59:38;3.10;;;1.00;;
21663;SDS011;10993;52.510;13.456;2023-05-19T03:04:41;3.60;;;1.33;;
21663;SDS011;10993;52.510;13.456;2023-05-19T03:09:41;1.88;;;0.90;;
21663;SDS011;10993;52.510;13.456;2023-05-19T03:14:42;6.50;;;1.35;;
21663;SDS011;10993;52.510;13.456;2023-05-19T03:19:44;3.20;;;1.27;;
21663;SDS011;10993;52.510;13.456;2023-05-19T03:24:44;4.15;;;1.42;;
21663;SDS011;10993;52.510;13.456;2023-05-19T03:29:44;2.92;;;1.20;;
21663;SDS011;10993;52.510;13.456;2023-05-19T03:34:46;2.90;;;1.00;;
21663;SDS011;10993;52.510;13.456;2023-05-19T03:39:46;2.72;;;1.05;;
21663;SDS011;10993;52.510;13.456;2023-05-19T03:44:47;4.22;;;1.33;;
21663;SDS011;10993;52.510;13.456;2023-05-19T03:49:51;1.45;;;0.73;;
21663;SDS011;10993;52.510;13.456;2023-05-19T03:54:52;3.97;;;1.08;;
21663;SDS011;10993;52.510;13.456;2023-05-19T03:59:52;6.30;;;1.63;;
21663;SDS011;10993;52.510;13.456;2023-05-19T04:04:54;4.65;;;1.35;;
21663;SDS011;10993;52.510;13.456;2023-05-19T04:09:54;2.00;;;0.90;;
21663;SDS011;10993;52.510;13.456;2023-05-19T04:14:55;3.95;;;1.13;;
21663;SDS011;10993;52.510;13.456;2023-05-19T04:19:57;2.38;;;1.08;;
21663;SDS011;10993;52.510;13.456;2023-05-19T04:24:57;4.63;;;1.42;;
21663;SDS011;10993;52.510;13.456;2023-05-19T04:29:58;4.88;;;1.65;;
21663;SDS011;10993;52.510;13.456;2023-05-19T04:34:59;2.75;;;1.20;;
21663;SDS011;10993;52.510;13.456;2023-05-19T04:40:00;4.22;;;1.23;;
21663;SDS011;10993;52.510;13.456;2023-05-19T04:45:00;2.38;;;1.10;;
21663;SDS011;10993;52.510;13.456;2023-05-19T04:50:04;3.72;;;1.23;;
21663;SDS011;10993;52.510;13.456;2023-05-19T04:55:06;6.95;;;2.03;;
21663;SDS011;10993;52.510;13.456;2023-05-19T05:00:07;2.88;;;1.20;;
21663;SDS011;10993;52.510;13.456;2023-05-19T05:05:13;4.95;;;1.52;;
21663;SDS011;10993;52.510;13.456;2023-05-19T05:10:13;4.90;;;1.13;;
21663;SDS011;10993;52.510;13.456;2023-05-19T05:15:14;3.00;;;1.30;;
21663;SDS011;10993;52.510;13.456;2023-05-19T05:20:16;3.63;;;1.23;;
21663;SDS011;10993;52.510;13.456;2023-05-19T05:25:19;3.05;;;1.27;;
21663;SDS011;10993;52.510;13.456;2023-05-19T05:30:19;5.55;;;1.80;;
21663;SDS011;10993;52.510;13.456;2023-05-19T05:35:21;4.73;;;1.20;;
21663;SDS011;10993;52.510;13.456;2023-05-19T05:40:23;2.38;;;1.17;;
21663;SDS011;10993;52.510;13.456;2023-05-19T05:45:23;5.28;;;1.73;;
21663;SDS011;10993;52.510;13.456;2023-05-19T05:50:26;4.47;;;1.10;;
21663;SDS011;10993;52.510;13.456;2023-05-19T05:55:27;4.63;;;1.38;;
21663;SDS011;10993;52.510;13.456;2023-05-19T06:00:28;6.45;;;1.40;;
21663;SDS011;10993;52.510;13.456;2023-05-19T06:05:30;4.07;;;1.40;;
21663;SDS011;10993;52.510;13.456;2023-05-19T06:10:30;4.40;;;1.80;;
21663;SDS011;10993;52.510;13.456;2023-05-19T06:15:31;3.65;;;1.45;;
21663;SDS011;10993;52.510;13.456;2023-05-19T06:20:33;4.50;;;1.42;;
21663;SDS011;10993;52.510;13.456;2023-05-19T06:25:33;5.18;;;1.70;;
21663;SDS011;10993;52.510;13.456;2023-05-19T06:30:33;2.75;;;1.13;;
21663;SDS011;10993;52.510;13.456;2023-05-19T06:35:36;2.85;;;1.40;;
21663;SDS011;10993;52.510;13.456;2023-05-19T06:40:37;3.83;;;1.35;;
21663;SDS011;10993;52.510;13.456;2023-05-19T06:45:37;2.35;;;1.10;;
21663;SDS011;10993;52.510;13.456;2023-05-19T06:50:39;4.40;;;1.60;;
21663;SDS011;10993;52.510;13.456;2023-05-19T06:55:39;4.88;;;1.38;;
21663;SDS011;10993;52.510;13.456;2023-05-19T07:00:40;3.47;;;1.20;;
21663;SDS011;10993;52.510;13.456;2023-05-19T07:05:42;4.05;;;1.20;;
21663;SDS011;10993;52.510;13.456;2023-05-19T07:10:42;5.03;;;1.50;;
21663;SDS011;10993;52.510;13.456;2023-05-19T07:15:42;4.00;;;1.57;;
21663;SDS011;10993;52.510;13.456;2023-05-19T07:20:44;4.88;;;1.88;;
21663;SDS011;10993;52.510;13.456;2023-05-19T07:25:44;3.20;;;1.60;;
21663;SDS011;10993;52.510;13.456;2023-05-19T07:30:45;6.35;;;1.75;;
21663;SDS011;10993;52.510;13.456;2023-05-19T07:35:47;2.37;;;1.17;;
21663;SDS011;10993;52.510;13.456;2023-05-19T07:40:47;4.85;;;1.38;;
21663;SDS011;10993;52.510;13.456;2023-05-19T07:45:47;3.70;;;1.60;;
21663;SDS011;10993;52.510;13.456;2023-05-19T07:50:49;3.67;;;1.80;;
21663;SDS011;10993;52.510;13.456;2023-05-19T07:55:50;3.03;;;1.45;;
21663;SDS011;10993;52.510;13.456;2023-05-19T08:00:50;4.07;;;1.42;;
21663;SDS011;10993;52.510;13.456;2023-05-19T08:05:52;2.78;;;1.33;;
21663;SDS011;10993;52.510;13.456;2023-05-19T08:10:52;2.97;;;1.40;;
21663;SDS011;10993;52.510;13.456;2023-05-19T08:15:52;4.10;;;1.20;;
21663;SDS011;10993;52.510;13.456;2023-05-19T08:21:02;3.85;;;1.73;;
21663;SDS011;10993;52.510;13.456;2023-05-19T08:26:02;6.32;;;1.80;;
21663;SDS011;10993;52.510;13.456;2023-05-19T08:31:03;2.38;;;1.30;;
21663;SDS011;10993;52.510;13.456;2023-05-19T08:36:05;3.75;;;1.60;;
21663;SDS011;10993;52.510;13.456;2023-05-19T08:41:05;2.63;;;1.20;;
21663;SDS011;10993;52.510;13.456;2023-05-19T08:46:05;2.45;;;1.17;;
21663;SDS011;10993;52.510;13.456;2023-05-19T08:51:10;2.47;;;1.30;;
21663;SDS011;10993;52.510;13.456;2023-05-19T08:56:18;3.58;;;1.40;;
21663;SDS011;10993;52.510;13.456;2023-05-19T09:01:20;2.10;;;0.93;;
21663;SDS011;10993;52.510;13.456;2023-05-19T09:06:22;5.15;;;1.10;;
21663;SDS011;10993;52.510;13.456;2023-05-19T09:11:24;2.38;;;1.00;;
21663;SDS011;10993;52.510;13.456;2023-05-19T09:16:25;3.25;;;0.90;;
21663;SDS011;10993;52.510;13.456;2023-05-19T09:21:30;1.55;;;0.80;;
21663;SDS011;10993;52.510;13.456;2023-05-19T09:26:34;3.42;;;1.05;;
21663;SDS011;10993;52.510;13.456;2023-05-19T09:31:36;1.90;;;0.77;;
21663;SDS011;10993;52.510;13.456;2023-05-19T09:36:39;1.03;;;0.50;;
21663;SDS011;10993;52.510;13.456;2023-05-19T09:41:40;2.10;;;0.70;;
21663;SDS011;10993;52.510;13.456;2023-05-19T09:46:47;1.48;;;0.63;;
21663;SDS011;10993;52.510;13.456;2023-05-19T09:51:51;1.38;;;0.80;;
21663;SDS011;10993;52.510;13.456;2023-05-19T09:56:57;1.83;;;0.73;;
21663;SDS011;10993;52.510;13.456;2023-05-19T10:01:58;1.40;;;0.57;;
21663;SDS011;10993;52.510;13.456;2023-05-19T10:07:04;2.65;;;0.82;;
21663;SDS011;10993;52.510;13.456;2023-05-19T10:12:05;1.42;;;0.65;;
21663;SDS011;10993;52.510;13.456;2023-05-19T10:17:08;1.95;;;0.60;;
21663;SDS011;10993;52.510;13.456;2023-05-19T10:22:11;2.40;;;0.85;;
21663;SDS011;10993;52.510;13.456;2023-05-19T10:27:12;1.25;;;0.57;;
21663;SDS011;10993;52.510;13.456;2023-05-19T10:32:14;1.83;;;0.77;;
21663;SDS011;10993;52.510;13.456;2023-05-19T10:37:23;1.50;;;0.80;;
21663;SDS011;10993;52.510;13.456;2023-05-19T10:42:35;1.90;;;0.80;;
21663;SDS011;10993;52.510;13.456;2023-05-19T10:47:39;1.50;;;0.70;;
21663;SDS011;10993;52.510;13.456;2023-05-19T10:52:41;1.45;;;0.68;;
21663;SDS011;10993;52.510;13.456;2023-05-19T10:57:52;3.28;;;0.73;;
21663;SDS011;10993;52.510;13.456;2023-05-19T11:02:52;1.73;;;0.60;;
21663;SDS011;10993;52.510;13.456;2023-05-19T11:07:58;2.13;;;1.00;;
21663;SDS011;10993;52.510;13.456;2023-05-19T11:13:05;1.73;;;0.90;;
21663;SDS011;10993;52.510;13.456;2023-05-19T11:18:05;2.35;;;0.90;;
21663;SDS011;10993;52.510;13.456;2023-05-19T11:23:08;1.52;;;0.95;;
21663;SDS011;10993;52.510;13.456;2023-05-19T11:28:10;2.10;;;0.88;;
21663;SDS011;10993;52.510;13.456;2023-05-19T11:33:13;2.08;;;0.70;;
21663;SDS011;10993;52.510;13.456;2023-05-19T11:38:15;1.90;;;0.70;;
21663;SDS011;10993;52.510;13.456;2023-05-19T11:43:15;2.08;;;0.88;;
21663;SDS011;10993;52.510;13.456;2023-05-19T11:48:21;2.17;;;0.90;;
21663;SDS011;10993;52.510;13.456;2023-05-19T11:53:23;1.92;;;0.98;;
21663;SDS011;10993;52.510;13.456;2023-05-19T11:58:23;2.55;;;0.93;;
21663;SDS011;10993;52.510;13.456;2023-05-19T12:03:25;1.35;;;0.60;;
21663;SDS011;10993;52.510;13.456;2023-05-19T12:08:29;1.67;;;0.90;;
21663;SDS011;10993;52.510;13.456;2023-05-19T12:13:29;1.75;;;0.68;;
21663;SDS011;10993;52.510;13.456;2023-05-19T12:18:30;1.67;;;0.70;;
21663;SDS011;10993;52.510;13.456;2023-05-19T12:23:36;1.23;;;0.60;;
21663;SDS011;10993;52.510;13.456;2023-05-19T12:28:41;2.17;;;1.05;;
21663;SDS011;10993;52.510;13.456;2023-05-19T12:33:44;2.25;;;0.95;;
21663;SDS011;10993;52.510;13.456;2023-05-19T12:38:46;1.85;;;0.90;;
21663;SDS011;10993;52.510;13.456;2023-05-19T12:43:47;1.50;;;0.80;;
21663;SDS011;10993;52.510;13.456;2023-05-19T12:48:47;4.43;;;1.10;;
21663;SDS011;10993;52.510;13.456;2023-05-19T12:53:49;1.77;;;0.73;;
21663;SDS011;10993;52.510;13.456;2023-05-19T12:58:52;3.72;;;0.82;;
21663;SDS011;10993;52.510;13.456;2023-05-19T13:03:53;1.88;;;1.00;;
21663;SDS011;10993;52.510;13.456;2023-05-19T13:08:55;2.45;;;0.80;;
21663;SDS011;10993;52.510;13.456;2023-05-19T13:13:56;2.58;;;1.08;;
21663;SDS011;10993;52.510;13.456;2023-05-19T13:18:56;5.28;;;1.20;;
21663;SDS011;10993;52.510;13.456;2023-05-19T13:23:58;3.28;;;0.80;;
21663;SDS011;10993;52.510;13.456;2023-05-19T13:28:58;1.83;;;0.70;;
21663;SDS011;10993;52.510;13.456;2023-05-19T13:33:59;1.98;;;1.00;;
21663;SDS011;10993;52.510;13.456;2023-05-19T13:39:00;2.53;;;0.75;;
21663;SDS011;10993;52.510;13.456;2023-05-19T13:44:01;2.42;;;0.80;;
21663;SDS011;10993;52.510;13.456;2023-05-19T13:49:01;2.60;;;1.40;;
21663;SDS011;10993;52.510;13.456;2023-05-19T13:54:03;1.92;;;0.90;;
21663;SDS011;10993;52.510;13.456;2023-05-19T13:59:03;2.50;;;1.00;;
21663;SDS011;10993;52.510;13.456;2023-05-19T14:04:04;4.10;;;1.50;;
21663;SDS011;10993;52.510;13.456;2023-05-19T14:09:05;2.25;;;1.00;;
21663;SDS011;10993;52.510;13.456;2023-05-19T14:14:06;2.70;;;1.10;;
21663;SDS011;10993;52.510;13.456;2023-05-19T14:19:07;2.03;;;1.10;;
21663;SDS011;10993;52.510;13.456;2023-05-19T14:24:08;3.00;;;1.52;;
21663;SDS011;10993;52.510;13.456;2023-05-19T14:29:09;3.70;;;1.60;;
21663;SDS011;10993;52.510;13.456;2023-05-19T14:34:09;2.07;;;1.00;;
21663;SDS011;10993;52.510;13.456;2023-05-19T14:39:11;1.70;;;0.90;;
21663;SDS011;10993;52.510;13.456;2023-05-19T14:44:11;1.77;;;0.90;;
21663;SDS011;10993;52.510;13.456;2023-05-19T14:49:11;3.93;;;1.50;;
21663;SDS011;10993;52.510;13.456;2023-05-19T14:54:13;5.10;;;1.00;;
21663;SDS011;10993;52.510;13.456;2023-05-19T14:59:13;2.75;;;1.40;;
21663;SDS011;10993;52.510;13.456;2023-05-19T15:04:14;3.65;;;1.30;;
21663;SDS011;10993;52.510;13.456;2023-05-19T15:09:15;2.80;;;1.07;;
21663;SDS011;10993;52.510;13.456;2023-05-19T15:14:16;3.10;;;1.33;;
21663;SDS011;10993;52.510;13.456;2023-05-19T15:19:16;2.45;;;1.25;;
21663;SDS011;10993;52.510;13.456;2023-05-19T15:24:18;2.08;;;1.02;;
21663;SDS011;10993;52.510;13.456;2023-05-19T15:29:18;2.13;;;1.02;;
21663;SDS011;10993;52.510;13.456;2023-05-19T15:34:19;2.70;;;1.17;;
21663;SDS011;10993;52.510;13.456;2023-05-19T15:39:21;5.32;;;1.48;;
21663;SDS011;10993;52.510;13.456;2023-05-19T15:44:21;3.92;;;1.00;;
21663;SDS011;10993;52.510;13.456;2023-05-19T15:49:21;2.13;;;1.08;;
21663;SDS011;10993;52.510;13.456;2023-05-19T15:54:25;2.22;;;1.27;;
21663;SDS011;10993;52.510;13.456;2023-05-19T15:59:25;3.22;;;1.05;;
21663;SDS011;10993;52.510;13.456;2023-05-19T16:04:25;3.15;;;1.23;;
21663;SDS011;10993;52.510;13.456;2023-05-19T16:09:27;2.72;;;1.20;;
21663;SDS011;10993;52.510;13.456;2023-05-19T16:14:27;1.63;;;1.00;;
21663;SDS011;10993;52.510;13.456;2023-05-19T16:19:32;2.50;;;1.20;;
21663;SDS011;10993;52.510;13.456;2023-05-19T16:24:33;2.00;;;1.00;;
21663;SDS011;10993;52.510;13.456;2023-05-19T16:29:34;3.33;;;1.25;;
21663;SDS011;10993;52.510;13.456;2023-05-19T16:34:34;1.95;;;1.10;;
21663;SDS011;10993;52.510;13.456;2023-05-19T16:39:36;2.47;;;1.25;;
21663;SDS011;10993;52.510;13.456;2023-05-19T16:44:36;4.13;;;1.30;;
21663;SDS011;10993;52.510;13.456;2023-05-19T16:49:36;6.03;;;1.40;;
21663;SDS011;10993;52.510;13.456;2023-05-19T16:54:40;4.03;;;1.33;;
21663;SDS011;10993;52.510;13.456;2023-05-19T16:59:41;2.88;;;1.33;;
21663;SDS011;10993;52.510;13.456;2023-05-19T17:04:41;4.30;;;1.90;;
21663;SDS011;10993;52.510;13.456;2023-05-19T17:09:43;5.90;;;2.00;;
21663;SDS011;10993;52.510;13.456;2023-05-19T17:14:43;2.38;;;1.30;;
21663;SDS011;10993;52.510;13.456;2023-05-19T17:19:44;6.28;;;2.50;;
21663;SDS011;10993;52.510;13.456;2023-05-19T17:24:46;3.50;;;2.13;;
21663;SDS011;10993;52.510;13.456;2023-05-19T17:29:46;5.13;;;1.70;;
21663;SDS011;10993;52.510;13.456;2023-05-19T17:34:47;4.05;;;1.60;;
21663;SDS011;10993;52.510;13.456;2023-05-19T17:39:48;4.25;;;1.73;;
21663;SDS011;10993;52.510;13.456;2023-05-19T17:44:49;3.83;;;1.83;;
21663;SDS011;10993;52.510;13.456;2023-05-19T17:49:49;2.97;;;1.60;;
21663;SDS011;10993;52.510;13.456;2023-05-19T17:54:53;3.72;;;1.80;;
21663;SDS011;10993;52.510;13.456;2023-05-19T17:59:54;3.53;;;1.70;;
21663;SDS011;10993;52.510;13.456;2023-05-19T18:04:55;4.32;;;2.03;;
21663;SDS011;10993;52.510;13.456;2023-05-19T18:09:57;3.92;;;2.08;;
21663;SDS011;10993;52.510;13.456;2023-05-19T18:14:59;2.65;;;1.35;;
21663;SDS011;10993;52.510;13.456;2023-05-19T18:19:59;7.05;;;3.40;;
21663;SDS011;10993;52.510;13.456;2023-05-19T18:25:01;151.10;;;118.65;;
21663;SDS011;10993;52.510;13.456;2023-05-19T18:30:02;116.13;;;103.95;;
21663;SDS011;10993;52.510;13.456;2023-05-19T18:35:03;164.20;;;81.82;;
21663;SDS011;10993;52.510;13.456;2023-05-19T18:40:06;5.20;;;2.38;;
21663;SDS011;10993;52.510;13.456;2023-05-19T18:45:07;3.10;;;1.33;;
21663;SDS011;10993;52.510;13.456;2023-05-19T18:50:08;4.35;;;2.03;;
21663;SDS011;10993;52.510;13.456;2023-05-19T18:55:10;5.65;;;2.33;;
21663;SDS011;10993;52.510;13.456;2023-05-19T19:00:11;2.97;;;1.38;;
21663;SDS011;10993;52.510;13.456;2023-05-19T19:05:12;2.95;;;1.70;;
21663;SDS011;10993;52.510;13.456;2023-05-19T19:10:14;5.47;;;2.13;;
21663;SDS011;10993;52.510;13.456;2023-05-19T19:15:14;8.38;;;5.32;;
21663;SDS011;10993;52.510;13.456;2023-05-19T19:20:15;6.18;;;2.33;;
21663;SDS011;10993;52.510;13.456;2023-05-19T19:25:16;4.70;;;1.80;;
21663;SDS011;10993;52.510;13.456;2023-05-19T19:30:17;3.95;;;2.40;;
21663;SDS011;10993;52.510;13.456;2023-05-19T19:35:17;4.40;;;2.33;;
21663;SDS011;10993;52.510;13.456;2023-05-19T19:40:19;3.38;;;1.80;;
21663;SDS011;10993;52.510;13.456;2023-05-19T19:45:20;2.72;;;1.55;;
21663;SDS011;10993;52.510;13.456;2023-05-19T19:50:20;3.13;;;1.70;;
21663;SDS011;10993;52.510;13.456;2023-05-19T19:55:22;8.57;;;2.40;;
21663;SDS011;10993;52.510;13.456;2023-05-19T20:00:22;3.05;;;1.70;;
21663;SDS011;10993;52.510;13.456;2023-05-19T20:05:23;4.55;;;2.03;;
21663;SDS011;10993;52.510;13.456;2023-05-19T20:10:24;3.92;;;1.77;;
21663;SDS011;10993;52.510;13.456;2023-05-19T20:15:27;6.55;;;1.92;;
21663;SDS011;10993;52.510;13.456;2023-05-19T20:20:27;4.13;;;2.20;;
21663;SDS011;10993;52.510;13.456;2023-05-19T20:25:29;4.37;;;2.07;;
21663;SDS011;10993;52.510;13.456;2023-05-19T20:30:29;4.60;;;1.98;;
21663;SDS011;10993;52.510;13.456;2023-05-19T20:35:30;5.82;;;2.83;;
21663;SDS011;10993;52.510;13.456;2023-05-19T20:40:32;5.13;;;2.20;;
21663;SDS011;10993;52.510;13.456;2023-05-19T20:45:32;4.20;;;2.13;;
21663;SDS011;10993;52.510;13.456;2023-05-19T20:50:32;5.75;;;2.53;;
21663;SDS011;10993;52.510;13.456;2023-05-19T20:55:34;4.82;;;2.53;;
21663;SDS011;10993;52.510;13.456;2023-05-19T21:00:38;4.95;;;2.13;;
21663;SDS011;10993;52.510;13.456;2023-05-19T21:05:38;4.45;;;2.13;;
21663;SDS011;10993;52.510;13.456;2023-05-19T21:10:40;5.20;;;2.53;;
21663;SDS011;10993;52.510;13.456;2023-05-19T21:15:40;6.40;;;2.60;;
21663;SDS011;10993;52.510;13.456;2023-05-19T21:20:40;6.18;;;2.58;;
21663;SDS011;10993;52.510;13.456;2023-05-19T21:25:42;5.13;;;2.27;;
21663;SDS011;10993;52.510;13.456;2023-05-19T21:30:45;6.53;;;2.38;;
21663;SDS011;10993;52.510;13.456;2023-05-19T21:35:46;5.82;;;2.08;;
21663;SDS011;10993;52.510;13.456;2023-05-19T21:40:48;5.13;;;2.33;;
21663;SDS011;10993;52.510;13.456;2023-05-19T21:45:48;6.05;;;2.60;;
21663;SDS011;10993;52.510;13.456;2023-05-19T21:50:52;4.72;;;2.38;;
21663;SDS011;10993;52.510;13.456;2023-05-19T21:55:54;4.20;;;2.28;;
21663;SDS011;10993;52.510;13.456;2023-05-19T22:00:55;5.40;;;2.20;;
21663;SDS011;10993;52.510;13.456;2023-05-19T22:05:59;5.55;;;2.22;;
21663;SDS011;10993;52.510;13.456;2023-05-19T22:11:01;4.93;;;2.25;;
21663;SDS011;10993;52.510;13.456;2023-05-19T22:16:02;5.43;;;2.10;;
21663;SDS011;10993;52.510;13.456;2023-05-19T22:21:03;4.00;;;1.98;;
21663;SDS011;10993;52.510;13.456;2023-05-19T22:26:05;3.13;;;2.00;;
21663;SDS011;10993;52.510;13.456;2023-05-19T22:31:06;5.03;;;1.98;;
21663;SDS011;10993;52.510;13.456;2023-05-19T22:36:06;3.55;;;2.03;;
21663;SDS011;10993;52.510;13.456;2023-05-19T22:41:08;6.47;;;2.05;;
21663;SDS011;10993;52.510;13.456;2023-05-19T22:46:08;4.88;;;2.20;;
21663;SDS011;10993;52.510;13.456;2023-05-19T22:51:09;4.78;;;2.15;;
21663;SDS011;10993;52.510;13.456;2023-05-19T22:56:11;4.22;;;2.20;;
21663;SDS011;10993;52.510;13.456;2023-05-19T23:01:11;3.33;;;1.85;;
21663;SDS011;10993;52.510;13.456;2023-05-19T23:06:11;3.72;;;1.85;;
21663;SDS011;10993;52.510;13.456;2023-05-19T23:11:13;4.90;;;2.10;;
21663;SDS011;10993;52.510;13.456;2023-05-19T23:16:16;4.30;;;2.30;;
21663;SDS011;10993;52.510;13.456;2023-05-19T23:21:17;4.10;;;2.13;;
21663;SDS011;10993;52.510;13.456;2023-05-19T23:26:18;5.32;;;2.15;;
21663;SDS011;10993;52.510;13.456;2023-05-19T23:31:20;6.13;;;1.98;;
21663;SDS011;10993;52.510;13.456;2023-05-19T23:36:20;3.50;;;2.20;;
21663;SDS011;10993;52.510;13.456;2023-05-19T23:41:23;4.82;;;1.80;;
21663;SDS011;10993;52.510;13.456;2023-05-19T23:46:23;4.10;;;2.17;;
21663;SDS011;10993;52.510;13.456;2023-05-19T23:51:24;5.25;;;2.65;;
21663;SDS011;10993;52.510;13.456;2023-05-19T23:56:25;4.53;;;2.38;;
